sensor_id;sensor_type;location;lat;lon;timestamp;P1;durP1;ratioP1;P2;durP2;ratioP2
51732;SDS011;39139;53.144;6.244;2022-08-19T00:01:42;9.70;;;8.73;;
51732;SDS011;39139;53.144;6.244;2022-08-19T00:04:10;15.43;;;10.35;;
51732;SDS011;39139;53.144;6.244;2022-08-19T00:06:38;12.45;;;9.55;;
51732;SDS011;39139;53.144;6.244;2022-08-19T00:09:07;14.00;;;8.73;;
51732;SDS011;39139;53.144;6.244;2022-08-19T00:11:34;10.98;;;7.80;;
51732;SDS011;39139;53.144;6.244;2022-08-19T00:14:02;11.30;;;10.02;;
51732;SDS011;39139;53.144;6.244;2022-08-19T00:16:29;9.93;;;7.78;;
51732;SDS011;39139;53.144;6.244;2022-08-19T00:18:55;11.82;;;9.15;;
51732;SDS011;39139;53.144;6.244;2022-08-19T00:21:21;10.75;;;9.02;;
51732;SDS011;39139;53.144;6.244;2022-08-19T00:23:52;10.75;;;9.35;;
51732;SDS011;39139;53.144;6.244;2022-08-19T00:26:19;12.73;;;9.70;;
51732;SDS011;39139;53.144;6.244;2022-08-19T00:28:45;13.52;;;10.23;;
51732;SDS011;39139;53.144;6.244;2022-08-19T00:31:12;10.40;;;9.18;;
51732;SDS011;39139;53.144;6.244;2022-08-19T00:33:38;11.45;;;9.98;;
51732;SDS011;39139;53.144;6.244;2022-08-19T00:36:04;10.90;;;9.60;;
51732;SDS011;39139;53.144;6.244;2022-08-19T00:38:32;13.70;;;10.23;;
51732;SDS011;39139;53.144;6.244;2022-08-19T00:40:58;10.88;;;9.80;;
51732;SDS011;39139;53.144;6.244;2022-08-19T00:43:25;12.40;;;10.35;;
51732;SDS011;39139;53.144;6.244;2022-08-19T00:45:52;10.35;;;8.35;;
51732;SDS011;39139;53.144;6.244;2022-08-19T00:48:19;11.82;;;8.52;;
51732;SDS011;39139;53.144;6.244;2022-08-19T00:50:45;10.15;;;9.18;;
51732;SDS011;39139;53.144;6.244;2022-08-19T00:53:14;12.05;;;8.85;;
51732;SDS011;39139;53.144;6.244;2022-08-19T00:55:47;13.80;;;10.63;;
51732;SDS011;39139;53.144;6.244;2022-08-19T00:58:16;13.00;;;9.80;;
51732;SDS011;39139;53.144;6.244;2022-08-19T01:00:44;12.23;;;10.93;;
51732;SDS011;39139;53.144;6.244;2022-08-19T01:03:11;8.23;;;7.50;;
51732;SDS011;39139;53.144;6.244;2022-08-19T01:05:41;14.45;;;9.75;;
51732;SDS011;39139;53.144;6.244;2022-08-19T01:08:08;10.82;;;9.63;;
51732;SDS011;39139;53.144;6.244;2022-08-19T01:10:36;12.45;;;9.02;;
51732;SDS011;39139;53.144;6.244;2022-08-19T01:13:05;13.70;;;9.45;;
51732;SDS011;39139;53.144;6.244;2022-08-19T01:15:35;14.13;;;9.25;;
51732;SDS011;39139;53.144;6.244;2022-08-19T01:18:08;12.98;;;9.82;;
51732;SDS011;39139;53.144;6.244;2022-08-19T01:20:37;9.90;;;8.82;;
51732;SDS011;39139;53.144;6.244;2022-08-19T01:23:03;11.77;;;9.45;;
51732;SDS011;39139;53.144;6.244;2022-08-19T01:25:31;9.27;;;8.35;;
51732;SDS011;39139;53.144;6.244;2022-08-19T01:28:02;9.00;;;8.10;;
51732;SDS011;39139;53.144;6.244;2022-08-19T01:30:29;7.18;;;6.47;;
51732;SDS011;39139;53.144;6.244;2022-08-19T01:32:57;9.10;;;7.07;;
51732;SDS011;39139;53.144;6.244;2022-08-19T01:35:29;10.05;;;7.53;;
51732;SDS011;39139;53.144;6.244;2022-08-19T01:37:57;8.80;;;7.32;;
51732;SDS011;39139;53.144;6.244;2022-08-19T01:40:31;11.90;;;7.53;;
51732;SDS011;39139;53.144;6.244;2022-08-19T01:43:00;7.95;;;5.57;;
51732;SDS011;39139;53.144;6.244;2022-08-19T01:45:26;6.28;;;5.72;;
51732;SDS011;39139;53.144;6.244;2022-08-19T01:47:54;7.25;;;6.55;;
51732;SDS011;39139;53.144;6.244;2022-08-19T01:50:21;6.38;;;5.63;;
51732;SDS011;39139;53.144;6.244;2022-08-19T01:52:47;6.75;;;6.10;;
51732;SDS011;39139;53.144;6.244;2022-08-19T01:55:17;6.53;;;6.03;;
51732;SDS011;39139;53.144;6.244;2022-08-19T01:57:49;7.75;;;6.50;;
51732;SDS011;39139;53.144;6.244;2022-08-19T02:00:19;4.72;;;4.43;;
51732;SDS011;39139;53.144;6.244;2022-08-19T02:02:46;6.32;;;5.25;;
51732;SDS011;39139;53.144;6.244;2022-08-19T02:05:12;5.05;;;4.60;;
51732;SDS011;39139;53.144;6.244;2022-08-19T02:07:39;7.13;;;5.53;;
51732;SDS011;39139;53.144;6.244;2022-08-19T02:10:07;6.10;;;5.45;;
51732;SDS011;39139;53.144;6.244;2022-08-19T02:12:35;6.00;;;5.43;;
51732;SDS011;39139;53.144;6.244;2022-08-19T02:15:01;8.05;;;6.65;;
51732;SDS011;39139;53.144;6.244;2022-08-19T02:17:28;7.85;;;5.78;;
51732;SDS011;39139;53.144;6.244;2022-08-19T02:19:57;9.07;;;5.95;;
51732;SDS011;39139;53.144;6.244;2022-08-19T02:22:23;6.32;;;5.75;;
51732;SDS011;39139;53.144;6.244;2022-08-19T02:24:53;7.88;;;5.47;;
51732;SDS011;39139;53.144;6.244;2022-08-19T02:27:19;4.65;;;4.25;;
51732;SDS011;39139;53.144;6.244;2022-08-19T02:29:45;5.95;;;5.03;;
51732;SDS011;39139;53.144;6.244;2022-08-19T02:32:12;4.75;;;4.05;;
51732;SDS011;39139;53.144;6.244;2022-08-19T02:34:38;6.00;;;5.30;;
51732;SDS011;39139;53.144;6.244;2022-08-19T02:37:04;8.43;;;5.95;;
51732;SDS011;39139;53.144;6.244;2022-08-19T02:39:30;5.88;;;5.20;;
51732;SDS011;39139;53.144;6.244;2022-08-19T02:41:55;7.65;;;4.97;;
51732;SDS011;39139;53.144;6.244;2022-08-19T02:44:21;6.80;;;5.60;;
51732;SDS011;39139;53.144;6.244;2022-08-19T02:46:47;7.22;;;6.38;;
51732;SDS011;39139;53.144;6.244;2022-08-19T02:49:14;6.53;;;5.93;;
51732;SDS011;39139;53.144;6.244;2022-08-19T02:51:42;9.85;;;8.85;;
51732;SDS011;39139;53.144;6.244;2022-08-19T02:54:09;11.38;;;7.53;;
51732;SDS011;39139;53.144;6.244;2022-08-19T02:56:37;6.72;;;6.07;;
51732;SDS011;39139;53.144;6.244;2022-08-19T02:59:04;9.98;;;5.57;;
51732;SDS011;39139;53.144;6.244;2022-08-19T03:01:33;7.78;;;5.85;;
51732;SDS011;39139;53.144;6.244;2022-08-19T03:04:00;6.82;;;5.68;;
51732;SDS011;39139;53.144;6.244;2022-08-19T03:06:28;13.07;;;5.68;;
51732;SDS011;39139;53.144;6.244;2022-08-19T03:08:54;4.93;;;4.50;;
51732;SDS011;39139;53.144;6.244;2022-08-19T03:11:22;9.95;;;5.95;;
51732;SDS011;39139;53.144;6.244;2022-08-19T03:13:49;6.95;;;5.68;;
51732;SDS011;39139;53.144;6.244;2022-08-19T03:16:16;5.22;;;4.82;;
51732;SDS011;39139;53.144;6.244;2022-08-19T03:18:49;8.48;;;6.75;;
51732;SDS011;39139;53.144;6.244;2022-08-19T03:21:25;9.05;;;5.43;;
51732;SDS011;39139;53.144;6.244;2022-08-19T03:23:53;7.22;;;5.00;;
51732;SDS011;39139;53.144;6.244;2022-08-19T03:26:20;7.20;;;5.35;;
51732;SDS011;39139;53.144;6.244;2022-08-19T03:28:45;6.25;;;5.60;;
51732;SDS011;39139;53.144;6.244;2022-08-19T03:31:15;5.47;;;4.97;;
51732;SDS011;39139;53.144;6.244;2022-08-19T03:33:42;9.27;;;5.55;;
51732;SDS011;39139;53.144;6.244;2022-08-19T03:36:10;6.78;;;4.80;;
51732;SDS011;39139;53.144;6.244;2022-08-19T03:41:12;7.60;;;5.85;;
51732;SDS011;39139;53.144;6.244;2022-08-19T03:43:40;6.43;;;5.38;;
51732;SDS011;39139;53.144;6.244;2022-08-19T03:46:10;7.25;;;4.78;;
51732;SDS011;39139;53.144;6.244;2022-08-19T03:48:38;6.32;;;4.97;;
51732;SDS011;39139;53.144;6.244;2022-08-19T03:51:06;9.05;;;6.43;;
51732;SDS011;39139;53.144;6.244;2022-08-19T03:53:33;6.75;;;5.95;;
51732;SDS011;39139;53.144;6.244;2022-08-19T03:56:00;10.88;;;7.10;;
51732;SDS011;39139;53.144;6.244;2022-08-19T03:58:27;9.95;;;7.78;;
51732;SDS011;39139;53.144;6.244;2022-08-19T04:00:55;8.48;;;5.70;;
51732;SDS011;39139;53.144;6.244;2022-08-19T04:03:21;8.50;;;6.97;;
51732;SDS011;39139;53.144;6.244;2022-08-19T04:05:47;8.13;;;5.97;;
51732;SDS011;39139;53.144;6.244;2022-08-19T04:08:13;7.60;;;5.90;;
51732;SDS011;39139;53.144;6.244;2022-08-19T04:10:45;10.35;;;6.32;;
51732;SDS011;39139;53.144;6.244;2022-08-19T04:13:12;11.40;;;6.60;;
51732;SDS011;39139;53.144;6.244;2022-08-19T04:15:39;9.25;;;7.00;;
51732;SDS011;39139;53.144;6.244;2022-08-19T04:18:06;7.10;;;6.50;;
51732;SDS011;39139;53.144;6.244;2022-08-19T04:20:46;7.30;;;6.32;;
51732;SDS011;39139;53.144;6.244;2022-08-19T04:23:13;10.38;;;7.47;;
51732;SDS011;39139;53.144;6.244;2022-08-19T04:25:40;10.57;;;8.07;;
51732;SDS011;39139;53.144;6.244;2022-08-19T04:28:08;8.40;;;6.50;;
51732;SDS011;39139;53.144;6.244;2022-08-19T04:30:42;10.98;;;7.50;;
51732;SDS011;39139;53.144;6.244;2022-08-19T04:33:10;11.57;;;8.85;;
51732;SDS011;39139;53.144;6.244;2022-08-19T04:35:42;9.93;;;8.57;;
51732;SDS011;39139;53.144;6.244;2022-08-19T04:38:10;9.18;;;8.27;;
51732;SDS011;39139;53.144;6.244;2022-08-19T04:40:46;11.10;;;8.75;;
51732;SDS011;39139;53.144;6.244;2022-08-19T04:43:32;15.38;;;8.02;;
51732;SDS011;39139;53.144;6.244;2022-08-19T04:46:06;9.10;;;7.22;;
51732;SDS011;39139;53.144;6.244;2022-08-19T04:48:33;10.05;;;7.10;;
51732;SDS011;39139;53.144;6.244;2022-08-19T04:51:00;11.18;;;7.43;;
51732;SDS011;39139;53.144;6.244;2022-08-19T04:53:32;7.82;;;7.03;;
51732;SDS011;39139;53.144;6.244;2022-08-19T04:55:59;10.15;;;7.22;;
51732;SDS011;39139;53.144;6.244;2022-08-19T05:00:54;12.82;;;7.93;;
51732;SDS011;39139;53.144;6.244;2022-08-19T05:03:20;10.93;;;7.13;;
51732;SDS011;39139;53.144;6.244;2022-08-19T05:05:47;13.02;;;9.07;;
51732;SDS011;39139;53.144;6.244;2022-08-19T05:08:14;11.05;;;8.82;;
51732;SDS011;39139;53.144;6.244;2022-08-19T05:10:45;13.52;;;9.50;;
51732;SDS011;39139;53.144;6.244;2022-08-19T05:13:13;15.18;;;9.52;;
51732;SDS011;39139;53.144;6.244;2022-08-19T05:15:39;17.40;;;10.32;;
51732;SDS011;39139;53.144;6.244;2022-08-19T05:18:05;13.05;;;10.13;;
51732;SDS011;39139;53.144;6.244;2022-08-19T05:20:50;12.75;;;11.40;;
51732;SDS011;39139;53.144;6.244;2022-08-19T05:23:34;13.32;;;11.30;;
51732;SDS011;39139;53.144;6.244;2022-08-19T05:26:00;17.77;;;12.10;;
51732;SDS011;39139;53.144;6.244;2022-08-19T05:28:25;15.90;;;12.60;;
51732;SDS011;39139;53.144;6.244;2022-08-19T05:30:52;22.88;;;13.73;;
51732;SDS011;39139;53.144;6.244;2022-08-19T05:33:20;22.80;;;15.93;;
51732;SDS011;39139;53.144;6.244;2022-08-19T05:35:46;18.65;;;12.57;;
51732;SDS011;39139;53.144;6.244;2022-08-19T05:38:15;21.90;;;12.50;;
51732;SDS011;39139;53.144;6.244;2022-08-19T05:40:42;13.98;;;10.20;;
51732;SDS011;39139;53.144;6.244;2022-08-19T05:43:14;28.00;;;17.65;;
51732;SDS011;39139;53.144;6.244;2022-08-19T05:45:41;26.40;;;17.52;;
51732;SDS011;39139;53.144;6.244;2022-08-19T05:48:07;28.23;;;18.17;;
51732;SDS011;39139;53.144;6.244;2022-08-19T05:50:36;27.65;;;17.10;;
51732;SDS011;39139;53.144;6.244;2022-08-19T05:53:02;24.27;;;17.38;;
51732;SDS011;39139;53.144;6.244;2022-08-19T05:55:28;20.58;;;15.38;;
51732;SDS011;39139;53.144;6.244;2022-08-19T05:57:54;21.60;;;15.05;;
51732;SDS011;39139;53.144;6.244;2022-08-19T06:00:19;26.80;;;17.00;;
51732;SDS011;39139;53.144;6.244;2022-08-19T06:02:45;22.15;;;13.93;;
51732;SDS011;39139;53.144;6.244;2022-08-19T06:05:11;21.75;;;15.32;;
51732;SDS011;39139;53.144;6.244;2022-08-19T06:07:37;29.85;;;19.65;;
51732;SDS011;39139;53.144;6.244;2022-08-19T06:10:04;26.90;;;18.27;;
51732;SDS011;39139;53.144;6.244;2022-08-19T06:12:32;22.48;;;16.85;;
51732;SDS011;39139;53.144;6.244;2022-08-19T06:15:01;25.30;;;17.98;;
51732;SDS011;39139;53.144;6.244;2022-08-19T06:17:29;27.15;;;18.02;;
51732;SDS011;39139;53.144;6.244;2022-08-19T06:19:55;23.70;;;17.42;;
51732;SDS011;39139;53.144;6.244;2022-08-19T06:22:21;30.55;;;20.13;;
51732;SDS011;39139;53.144;6.244;2022-08-19T06:24:46;27.02;;;19.30;;
51732;SDS011;39139;53.144;6.244;2022-08-19T06:27:12;29.83;;;20.15;;
51732;SDS011;39139;53.144;6.244;2022-08-19T06:29:38;29.35;;;18.92;;
51732;SDS011;39139;53.144;6.244;2022-08-19T06:32:03;30.25;;;21.92;;
51732;SDS011;39139;53.144;6.244;2022-08-19T06:34:31;28.73;;;18.65;;
51732;SDS011;39139;53.144;6.244;2022-08-19T06:36:59;33.67;;;21.80;;
51732;SDS011;39139;53.144;6.244;2022-08-19T06:39:27;29.73;;;20.50;;
51732;SDS011;39139;53.144;6.244;2022-08-19T06:41:58;27.45;;;20.55;;
51732;SDS011;39139;53.144;6.244;2022-08-19T06:44:26;31.30;;;22.13;;
51732;SDS011;39139;53.144;6.244;2022-08-19T06:46:54;31.63;;;21.75;;
51732;SDS011;39139;53.144;6.244;2022-08-19T06:49:20;35.70;;;22.48;;
51732;SDS011;39139;53.144;6.244;2022-08-19T06:51:46;32.55;;;20.85;;
51732;SDS011;39139;53.144;6.244;2022-08-19T06:54:14;28.92;;;21.42;;
51732;SDS011;39139;53.144;6.244;2022-08-19T06:56:41;30.42;;;19.70;;
51732;SDS011;39139;53.144;6.244;2022-08-19T06:59:12;27.55;;;19.88;;
51732;SDS011;39139;53.144;6.244;2022-08-19T07:01:41;25.13;;;19.38;;
51732;SDS011;39139;53.144;6.244;2022-08-19T07:04:15;27.75;;;19.77;;
51732;SDS011;39139;53.144;6.244;2022-08-19T07:06:42;30.77;;;20.17;;
51732;SDS011;39139;53.144;6.244;2022-08-19T07:09:09;28.88;;;21.75;;
51732;SDS011;39139;53.144;6.244;2022-08-19T07:11:38;24.23;;;19.67;;
51732;SDS011;39139;53.144;6.244;2022-08-19T07:14:03;22.63;;;19.05;;
51732;SDS011;39139;53.144;6.244;2022-08-19T07:16:31;25.58;;;19.75;;
51732;SDS011;39139;53.144;6.244;2022-08-19T07:18:57;23.23;;;19.33;;
51732;SDS011;39139;53.144;6.244;2022-08-19T07:21:24;33.78;;;20.60;;
51732;SDS011;39139;53.144;6.244;2022-08-19T07:23:53;23.95;;;18.90;;
51732;SDS011;39139;53.144;6.244;2022-08-19T07:26:27;27.15;;;19.23;;
51732;SDS011;39139;53.144;6.244;2022-08-19T07:28:56;23.92;;;18.73;;
51732;SDS011;39139;53.144;6.244;2022-08-19T07:31:23;22.25;;;17.35;;
51732;SDS011;39139;53.144;6.244;2022-08-19T07:33:51;20.38;;;17.23;;
51732;SDS011;39139;53.144;6.244;2022-08-19T07:36:21;19.83;;;17.45;;
51732;SDS011;39139;53.144;6.244;2022-08-19T07:38:49;17.65;;;15.75;;
51732;SDS011;39139;53.144;6.244;2022-08-19T07:41:18;21.08;;;18.75;;
51732;SDS011;39139;53.144;6.244;2022-08-19T07:43:47;18.08;;;15.25;;
51732;SDS011;39139;53.144;6.244;2022-08-19T07:46:14;18.65;;;15.93;;
51732;SDS011;39139;53.144;6.244;2022-08-19T07:48:42;19.25;;;17.10;;
51732;SDS011;39139;53.144;6.244;2022-08-19T07:51:10;16.55;;;14.35;;
51732;SDS011;39139;53.144;6.244;2022-08-19T07:53:36;20.13;;;16.70;;
51732;SDS011;39139;53.144;6.244;2022-08-19T07:56:03;17.77;;;15.93;;
51732;SDS011;39139;53.144;6.244;2022-08-19T07:58:31;17.75;;;15.65;;
51732;SDS011;39139;53.144;6.244;2022-08-19T08:00:59;19.35;;;17.45;;
51732;SDS011;39139;53.144;6.244;2022-08-19T08:03:25;17.65;;;15.27;;
51732;SDS011;39139;53.144;6.244;2022-08-19T08:06:10;18.15;;;16.20;;
51732;SDS011;39139;53.144;6.244;2022-08-19T08:08:55;18.20;;;14.98;;
51732;SDS011;39139;53.144;6.244;2022-08-19T08:11:40;17.90;;;15.32;;
51732;SDS011;39139;53.144;6.244;2022-08-19T08:14:15;17.15;;;15.48;;
51732;SDS011;39139;53.144;6.244;2022-08-19T08:16:49;18.85;;;16.48;;
51732;SDS011;39139;53.144;6.244;2022-08-19T08:19:17;17.48;;;15.65;;
51732;SDS011;39139;53.144;6.244;2022-08-19T08:21:44;20.45;;;15.73;;
51732;SDS011;39139;53.144;6.244;2022-08-19T08:24:10;17.48;;;15.70;;
51732;SDS011;39139;53.144;6.244;2022-08-19T08:26:37;16.35;;;14.10;;
51732;SDS011;39139;53.144;6.244;2022-08-19T08:29:03;18.33;;;15.45;;
51732;SDS011;39139;53.144;6.244;2022-08-19T08:31:28;19.17;;;16.73;;
51732;SDS011;39139;53.144;6.244;2022-08-19T08:33:54;17.42;;;15.73;;
51732;SDS011;39139;53.144;6.244;2022-08-19T08:36:20;18.23;;;16.40;;
51732;SDS011;39139;53.144;6.244;2022-08-19T08:38:46;17.25;;;15.52;;
51732;SDS011;39139;53.144;6.244;2022-08-19T08:43:47;16.48;;;14.60;;
51732;SDS011;39139;53.144;6.244;2022-08-19T08:51:52;14.40;;;13.05;;
51732;SDS011;39139;53.144;6.244;2022-08-19T08:54:25;14.45;;;12.95;;
51732;SDS011;39139;53.144;6.244;2022-08-19T08:56:57;14.13;;;12.73;;
51732;SDS011;39139;53.144;6.244;2022-08-19T08:59:27;12.55;;;11.18;;
51732;SDS011;39139;53.144;6.244;2022-08-19T09:01:59;12.65;;;11.65;;
51732;SDS011;39139;53.144;6.244;2022-08-19T09:04:25;12.73;;;11.43;;
51732;SDS011;39139;53.144;6.244;2022-08-19T09:09:33;11.23;;;10.32;;
51732;SDS011;39139;53.144;6.244;2022-08-19T09:15:04;11.48;;;10.38;;
51732;SDS011;39139;53.144;6.244;2022-08-19T09:17:36;10.63;;;9.60;;
51732;SDS011;39139;53.144;6.244;2022-08-19T09:22:35;11.45;;;10.52;;
51732;SDS011;39139;53.144;6.244;2022-08-19T09:25:02;12.57;;;11.55;;
51732;SDS011;39139;53.144;6.244;2022-08-19T09:27:30;12.30;;;11.38;;
51732;SDS011;39139;53.144;6.244;2022-08-19T09:29:56;13.23;;;11.98;;
51732;SDS011;39139;53.144;6.244;2022-08-19T09:32:23;12.50;;;11.30;;
51732;SDS011;39139;53.144;6.244;2022-08-19T09:34:49;11.85;;;10.88;;
51732;SDS011;39139;53.144;6.244;2022-08-19T09:37:14;12.40;;;11.45;;
51732;SDS011;39139;53.144;6.244;2022-08-19T09:39:40;13.35;;;12.32;;
51732;SDS011;39139;53.144;6.244;2022-08-19T09:42:07;15.35;;;14.07;;
51732;SDS011;39139;53.144;6.244;2022-08-19T09:44:39;16.30;;;14.38;;
51732;SDS011;39139;53.144;6.244;2022-08-19T09:47:05;13.98;;;12.68;;
51732;SDS011;39139;53.144;6.244;2022-08-19T09:49:32;15.27;;;13.90;;
51732;SDS011;39139;53.144;6.244;2022-08-19T09:51:58;16.60;;;15.02;;
51732;SDS011;39139;53.144;6.244;2022-08-19T09:54:24;18.92;;;17.30;;
51732;SDS011;39139;53.144;6.244;2022-08-19T09:56:51;19.80;;;18.00;;
51732;SDS011;39139;53.144;6.244;2022-08-19T09:59:17;19.13;;;17.17;;
51732;SDS011;39139;53.144;6.244;2022-08-19T10:01:43;15.68;;;14.27;;
51732;SDS011;39139;53.144;6.244;2022-08-19T10:04:09;16.73;;;15.23;;
51732;SDS011;39139;53.144;6.244;2022-08-19T10:06:35;16.90;;;14.20;;
51732;SDS011;39139;53.144;6.244;2022-08-19T10:09:03;16.27;;;14.85;;
51732;SDS011;39139;53.144;6.244;2022-08-19T10:11:31;16.77;;;15.20;;
51732;SDS011;39139;53.144;6.244;2022-08-19T10:13:58;18.00;;;16.27;;
51732;SDS011;39139;53.144;6.244;2022-08-19T10:16:24;18.90;;;17.15;;
51732;SDS011;39139;53.144;6.244;2022-08-19T10:18:50;19.15;;;17.45;;
51732;SDS011;39139;53.144;6.244;2022-08-19T10:21:18;18.60;;;16.77;;
51732;SDS011;39139;53.144;6.244;2022-08-19T10:23:46;19.08;;;16.70;;
51732;SDS011;39139;53.144;6.244;2022-08-19T10:26:14;17.93;;;16.23;;
51732;SDS011;39139;53.144;6.244;2022-08-19T10:31:09;16.88;;;15.27;;
51732;SDS011;39139;53.144;6.244;2022-08-19T10:33:40;16.75;;;15.23;;
51732;SDS011;39139;53.144;6.244;2022-08-19T10:36:07;16.38;;;14.73;;
51732;SDS011;39139;53.144;6.244;2022-08-19T10:38:35;17.63;;;16.02;;
51732;SDS011;39139;53.144;6.244;2022-08-19T10:41:11;16.73;;;13.43;;
51732;SDS011;39139;53.144;6.244;2022-08-19T10:43:39;14.18;;;12.85;;
51732;SDS011;39139;53.144;6.244;2022-08-19T10:46:09;15.18;;;13.80;;
51732;SDS011;39139;53.144;6.244;2022-08-19T10:48:37;13.88;;;12.57;;
51732;SDS011;39139;53.144;6.244;2022-08-19T10:51:03;12.00;;;10.73;;
51732;SDS011;39139;53.144;6.244;2022-08-19T10:53:47;11.10;;;9.98;;
51732;SDS011;39139;53.144;6.244;2022-08-19T10:56:13;12.45;;;11.10;;
51732;SDS011;39139;53.144;6.244;2022-08-19T10:58:58;12.27;;;11.18;;
51732;SDS011;39139;53.144;6.244;2022-08-19T11:01:25;13.45;;;12.05;;
51732;SDS011;39139;53.144;6.244;2022-08-19T11:03:51;12.52;;;11.15;;
51732;SDS011;39139;53.144;6.244;2022-08-19T11:06:17;11.13;;;10.02;;
51732;SDS011;39139;53.144;6.244;2022-08-19T11:08:44;13.00;;;11.48;;
51732;SDS011;39139;53.144;6.244;2022-08-19T11:11:10;12.80;;;11.45;;
51732;SDS011;39139;53.144;6.244;2022-08-19T11:13:38;12.02;;;10.88;;
51732;SDS011;39139;53.144;6.244;2022-08-19T11:16:13;13.73;;;12.30;;
51732;SDS011;39139;53.144;6.244;2022-08-19T11:18:42;14.07;;;11.13;;
51732;SDS011;39139;53.144;6.244;2022-08-19T11:21:10;14.43;;;12.57;;
51732;SDS011;39139;53.144;6.244;2022-08-19T11:23:44;13.50;;;11.82;;
51732;SDS011;39139;53.144;6.244;2022-08-19T11:26:10;15.52;;;11.30;;
51732;SDS011;39139;53.144;6.244;2022-08-19T11:28:36;13.95;;;12.05;;
51732;SDS011;39139;53.144;6.244;2022-08-19T11:31:03;13.38;;;11.50;;
51732;SDS011;39139;53.144;6.244;2022-08-19T11:33:32;11.13;;;10.23;;
51732;SDS011;39139;53.144;6.244;2022-08-19T11:35:58;11.13;;;10.13;;
51732;SDS011;39139;53.144;6.244;2022-08-19T11:38:25;10.68;;;9.57;;
51732;SDS011;39139;53.144;6.244;2022-08-19T11:40:55;10.48;;;8.48;;
51732;SDS011;39139;53.144;6.244;2022-08-19T11:43:22;12.88;;;9.10;;
51732;SDS011;39139;53.144;6.244;2022-08-19T11:45:47;11.63;;;10.40;;
51732;SDS011;39139;53.144;6.244;2022-08-19T11:48:13;12.90;;;10.35;;
51732;SDS011;39139;53.144;6.244;2022-08-19T11:50:46;12.27;;;10.85;;
51732;SDS011;39139;53.144;6.244;2022-08-19T11:53:13;10.70;;;9.70;;
51732;SDS011;39139;53.144;6.244;2022-08-19T11:55:39;10.52;;;9.52;;
51732;SDS011;39139;53.144;6.244;2022-08-19T11:58:05;10.82;;;9.45;;
51732;SDS011;39139;53.144;6.244;2022-08-19T12:00:33;10.93;;;9.63;;
51732;SDS011;39139;53.144;6.244;2022-08-19T12:03:00;11.45;;;9.68;;
51732;SDS011;39139;53.144;6.244;2022-08-19T12:05:26;13.25;;;11.43;;
51732;SDS011;39139;53.144;6.244;2022-08-19T12:07:52;14.18;;;11.13;;
51732;SDS011;39139;53.144;6.244;2022-08-19T12:10:19;15.35;;;9.48;;
51732;SDS011;39139;53.144;6.244;2022-08-19T12:12:45;15.88;;;12.02;;
51732;SDS011;39139;53.144;6.244;2022-08-19T12:15:11;19.63;;;15.35;;
51732;SDS011;39139;53.144;6.244;2022-08-19T12:17:42;19.50;;;17.30;;
51732;SDS011;39139;53.144;6.244;2022-08-19T12:20:08;27.65;;;17.98;;
51732;SDS011;39139;53.144;6.244;2022-08-19T12:22:37;24.50;;;20.35;;
51732;SDS011;39139;53.144;6.244;2022-08-19T12:25:04;21.67;;;19.30;;
51732;SDS011;39139;53.144;6.244;2022-08-19T12:27:30;23.35;;;19.30;;
51732;SDS011;39139;53.144;6.244;2022-08-19T12:29:56;28.63;;;19.58;;
51732;SDS011;39139;53.144;6.244;2022-08-19T12:32:23;23.10;;;17.55;;
51732;SDS011;39139;53.144;6.244;2022-08-19T12:34:49;25.42;;;21.27;;
51732;SDS011;39139;53.144;6.244;2022-08-19T12:37:15;25.42;;;20.73;;
51732;SDS011;39139;53.144;6.244;2022-08-19T12:39:41;25.17;;;18.55;;
51732;SDS011;39139;53.144;6.244;2022-08-19T12:42:09;17.60;;;13.02;;
51732;SDS011;39139;53.144;6.244;2022-08-19T12:44:37;13.68;;;9.50;;
51732;SDS011;39139;53.144;6.244;2022-08-19T12:47:04;12.77;;;10.93;;
51732;SDS011;39139;53.144;6.244;2022-08-19T12:49:32;16.05;;;12.98;;
51732;SDS011;39139;53.144;6.244;2022-08-19T12:52:01;11.75;;;10.48;;
51732;SDS011;39139;53.144;6.244;2022-08-19T12:54:28;10.90;;;9.13;;
51732;SDS011;39139;53.144;6.244;2022-08-19T12:56:55;12.43;;;10.63;;
51732;SDS011;39139;53.144;6.244;2022-08-19T13:01:50;13.13;;;11.23;;
51732;SDS011;39139;53.144;6.244;2022-08-19T13:04:16;14.45;;;12.15;;
51732;SDS011;39139;53.144;6.244;2022-08-19T13:06:41;16.65;;;11.80;;
51732;SDS011;39139;53.144;6.244;2022-08-19T13:09:07;15.55;;;11.45;;
51732;SDS011;39139;53.144;6.244;2022-08-19T13:11:34;14.57;;;12.38;;
51732;SDS011;39139;53.144;6.244;2022-08-19T13:14:01;16.92;;;12.05;;
51732;SDS011;39139;53.144;6.244;2022-08-19T13:16:27;16.60;;;13.10;;
51732;SDS011;39139;53.144;6.244;2022-08-19T13:18:54;15.90;;;14.27;;
51732;SDS011;39139;53.144;6.244;2022-08-19T13:21:22;18.02;;;15.60;;
51732;SDS011;39139;53.144;6.244;2022-08-19T13:26:16;26.75;;;17.90;;
51732;SDS011;39139;53.144;6.244;2022-08-19T13:28:43;26.48;;;18.67;;
51732;SDS011;39139;53.144;6.244;2022-08-19T13:31:29;28.23;;;18.48;;
51732;SDS011;39139;53.144;6.244;2022-08-19T13:34:18;19.88;;;16.10;;
51732;SDS011;39139;53.144;6.244;2022-08-19T13:36:51;14.48;;;11.68;;
51732;SDS011;39139;53.144;6.244;2022-08-19T13:39:18;37.63;;;13.25;;
51732;SDS011;39139;53.144;6.244;2022-08-19T13:41:46;19.25;;;11.57;;
51732;SDS011;39139;53.144;6.244;2022-08-19T13:44:13;19.40;;;11.73;;
51732;SDS011;39139;53.144;6.244;2022-08-19T13:46:40;22.13;;;13.10;;
51732;SDS011;39139;53.144;6.244;2022-08-19T13:49:13;15.10;;;12.02;;
51732;SDS011;39139;53.144;6.244;2022-08-19T13:51:39;16.15;;;12.70;;
51732;SDS011;39139;53.144;6.244;2022-08-19T13:54:06;17.70;;;15.05;;
51732;SDS011;39139;53.144;6.244;2022-08-19T13:56:33;15.40;;;13.57;;
51732;SDS011;39139;53.144;6.244;2022-08-19T13:58:59;19.10;;;14.10;;
51732;SDS011;39139;53.144;6.244;2022-08-19T14:01:25;15.52;;;13.85;;
51732;SDS011;39139;53.144;6.244;2022-08-19T14:03:51;20.00;;;16.45;;
51732;SDS011;39139;53.144;6.244;2022-08-19T14:06:17;24.67;;;18.83;;
51732;SDS011;39139;53.144;6.244;2022-08-19T14:08:44;22.42;;;17.63;;
51732;SDS011;39139;53.144;6.244;2022-08-19T14:11:10;19.58;;;15.50;;
51732;SDS011;39139;53.144;6.244;2022-08-19T14:13:36;17.48;;;15.40;;
51732;SDS011;39139;53.144;6.244;2022-08-19T14:16:06;20.13;;;15.52;;
51732;SDS011;39139;53.144;6.244;2022-08-19T14:18:33;20.45;;;12.90;;
51732;SDS011;39139;53.144;6.244;2022-08-19T14:20:59;9.18;;;8.15;;
51732;SDS011;39139;53.144;6.244;2022-08-19T14:23:24;13.88;;;8.35;;
51732;SDS011;39139;53.144;6.244;2022-08-19T14:25:50;11.80;;;8.20;;
51732;SDS011;39139;53.144;6.244;2022-08-19T14:28:16;8.90;;;7.43;;
51732;SDS011;39139;53.144;6.244;2022-08-19T14:30:41;7.30;;;5.88;;
51732;SDS011;39139;53.144;6.244;2022-08-19T14:33:09;8.23;;;6.10;;
51732;SDS011;39139;53.144;6.244;2022-08-19T14:35:35;6.13;;;5.53;;
51732;SDS011;39139;53.144;6.244;2022-08-19T14:38:05;9.05;;;5.72;;
51732;SDS011;39139;53.144;6.244;2022-08-19T14:40:32;8.50;;;6.38;;
51732;SDS011;39139;53.144;6.244;2022-08-19T14:42:59;7.97;;;5.60;;
51732;SDS011;39139;53.144;6.244;2022-08-19T14:45:29;7.15;;;6.45;;
51732;SDS011;39139;53.144;6.244;2022-08-19T14:47:56;7.38;;;6.50;;
51732;SDS011;39139;53.144;6.244;2022-08-19T14:50:24;7.47;;;6.75;;
51732;SDS011;39139;53.144;6.244;2022-08-19T14:52:56;7.80;;;6.82;;
51732;SDS011;39139;53.144;6.244;2022-08-19T14:55:28;9.82;;;7.38;;
51732;SDS011;39139;53.144;6.244;2022-08-19T14:57:54;9.60;;;6.45;;
51732;SDS011;39139;53.144;6.244;2022-08-19T15:00:20;8.05;;;7.25;;
51732;SDS011;39139;53.144;6.244;2022-08-19T15:02:46;10.45;;;7.28;;
51732;SDS011;39139;53.144;6.244;2022-08-19T15:05:12;9.30;;;7.82;;